createdAt,value
2022-11-30T00:01:15.101Z,17.05
2022-11-30T00:03:42.060Z,15.85
2022-11-30T00:06:11.448Z,16.42
2022-11-30T00:08:38.454Z,17.90
2022-11-30T00:11:21.280Z,16.55
2022-11-30T00:13:48.559Z,17.08
2022-11-30T00:16:15.458Z,17.77
2022-11-30T00:18:42.506Z,18.45
2022-11-30T00:21:12.640Z,17.45
2022-11-30T00:23:42.728Z,18.48
2022-11-30T00:26:12.036Z,19.25
2022-11-30T00:28:39.269Z,17.75
2022-11-30T00:31:11.387Z,17.88
2022-11-30T00:33:39.195Z,19.02
2022-11-30T00:36:08.608Z,18.02
2022-11-30T00:38:36.065Z,17.02
2022-11-30T00:41:03.670Z,17.98
2022-11-30T00:43:30.997Z,17.98
2022-11-30T00:45:58.392Z,16.63
2022-11-30T00:48:25.563Z,19.15
2022-11-30T00:50:52.329Z,18.40
2022-11-30T00:53:19.858Z,18.85
2022-11-30T00:55:47.627Z,19.20
2022-11-30T00:58:14.885Z,19.55
2022-11-30T01:00:41.960Z,19.67
2022-11-30T01:03:09.412Z,19.92
2022-11-30T01:05:36.877Z,19.13
2022-11-30T01:08:05.915Z,18.67
2022-11-30T01:10:33.769Z,13.82
2022-11-30T01:13:00.804Z,19.02
2022-11-30T01:15:27.674Z,19.27
2022-11-30T01:17:54.303Z,18.45
2022-11-30T01:20:20.898Z,18.50
2022-11-30T01:22:47.592Z,18.90
2022-11-30T01:25:14.314Z,19.38
2022-11-30T01:27:41.418Z,18.25
2022-11-30T01:30:08.623Z,19.58
2022-11-30T01:32:35.333Z,18.63
2022-11-30T01:35:02.101Z,18.83
2022-11-30T01:37:30.088Z,19.65
2022-11-30T01:39:56.958Z,20.17
2022-11-30T01:42:23.831Z,19.27
2022-11-30T01:44:57.836Z,20.05
2022-11-30T01:47:34.680Z,21.20
2022-11-30T01:50:09.971Z,20.17
2022-11-30T01:52:48.902Z,19.92
2022-11-30T01:55:29.698Z,14.93
2022-11-30T01:58:01.940Z,20.92
2022-11-30T02:00:28.885Z,19.95
2022-11-30T02:03:05.844Z,21.20
2022-11-30T02:05:37.236Z,19.70
2022-11-30T02:08:05.659Z,22.00
2022-11-30T02:10:35.736Z,21.88
2022-11-30T02:13:37.329Z,21.63
2022-11-30T02:16:14.674Z,21.42
2022-11-30T02:18:56.449Z,21.30
2022-11-30T02:21:42.124Z,21.40
2022-11-30T02:24:11.876Z,21.40
2022-11-30T02:26:57.355Z,21.67
2022-11-30T02:29:41.108Z,21.35
2022-11-30T02:32:14.262Z,22.10
2022-11-30T02:34:44.570Z,22.20
2022-11-30T02:37:13.814Z,21.77
2022-11-30T02:39:40.524Z,23.10
2022-11-30T02:42:13.106Z,23.25
2022-11-30T02:44:50.209Z,23.23
2022-11-30T02:47:26.070Z,24.83
2022-11-30T02:50:22.792Z,21.90
2022-11-30T02:52:51.252Z,23.20
2022-11-30T02:55:20.292Z,23.45
2022-11-30T02:57:47.033Z,17.90
2022-11-30T03:00:15.431Z,23.73
2022-11-30T03:02:42.167Z,25.10
2022-11-30T03:05:09.319Z,23.90
2022-11-30T03:07:36.246Z,24.30
2022-11-30T03:10:03.975Z,24.52
2022-11-30T03:12:30.666Z,23.15
2022-11-30T03:14:57.214Z,22.25
2022-11-30T03:17:23.841Z,23.65
2022-11-30T03:19:50.568Z,24.50
2022-11-30T03:22:17.171Z,25.92
2022-11-30T03:24:43.835Z,25.27
2022-11-30T03:27:10.475Z,25.15
2022-11-30T03:29:37.143Z,24.63
2022-11-30T03:32:04.161Z,24.30
2022-11-30T03:34:31.005Z,24.33
2022-11-30T03:36:57.871Z,25.27
2022-11-30T03:39:24.893Z,23.65
2022-11-30T03:41:51.737Z,23.23
2022-11-30T03:44:18.701Z,23.58
2022-11-30T03:46:45.410Z,24.88
2022-11-30T03:49:12.026Z,23.73
2022-11-30T03:51:38.801Z,25.10
2022-11-30T03:54:05.403Z,24.77
2022-11-30T03:56:31.984Z,25.00
2022-11-30T03:58:58.681Z,24.17
2022-11-30T04:01:25.864Z,25.17
2022-11-30T04:03:52.810Z,23.92
2022-11-30T04:06:20.706Z,23.38
2022-11-30T04:08:47.648Z,24.35
2022-11-30T04:11:15.048Z,24.20
2022-11-30T04:13:42.690Z,23.45
2022-11-30T04:16:10.210Z,22.45
2022-11-30T04:18:37.698Z,22.95
2022-11-30T04:21:05.101Z,25.35
2022-11-30T04:23:37.559Z,22.92
2022-11-30T04:26:09.154Z,23.40
2022-11-30T04:28:35.781Z,25.15
2022-11-30T04:31:03.205Z,22.00
2022-11-30T04:33:30.549Z,22.17
2022-11-30T04:36:03.494Z,21.77
2022-11-30T04:38:30.979Z,22.67
2022-11-30T04:40:57.544Z,23.38
2022-11-30T04:43:24.841Z,22.00
2022-11-30T04:45:51.761Z,22.45
2022-11-30T04:48:19.657Z,21.77
2022-11-30T04:50:46.233Z,22.63
2022-11-30T04:53:12.847Z,22.48
2022-11-30T04:55:39.508Z,24.05
2022-11-30T04:58:07.163Z,23.02
2022-11-30T05:00:34.664Z,21.85
2022-11-30T05:03:02.603Z,23.20
2022-11-30T05:05:29.350Z,21.73
2022-11-30T05:07:58.562Z,21.48
2022-11-30T05:10:26.687Z,17.38
2022-11-30T05:12:53.423Z,23.02
2022-11-30T05:15:20.361Z,23.38
2022-11-30T05:17:47.039Z,23.38
2022-11-30T05:20:14.056Z,22.25
2022-11-30T05:22:41.940Z,22.05
2022-11-30T05:25:09.376Z,23.58
2022-11-30T05:27:36.771Z,22.38
2022-11-30T05:30:04.849Z,22.75
2022-11-30T05:32:31.460Z,22.70
2022-11-30T05:34:58.790Z,23.27
2022-11-30T05:37:25.638Z,22.70
2022-11-30T05:39:52.280Z,21.98
2022-11-30T05:42:18.941Z,21.90
2022-11-30T05:44:46.052Z,22.73
2022-11-30T05:47:13.392Z,25.52
2022-11-30T05:49:40.628Z,22.90
2022-11-30T05:52:07.319Z,23.70
2022-11-30T05:54:34.681Z,24.30
2022-11-30T05:57:01.515Z,22.85
2022-11-30T05:59:28.093Z,21.13
2022-11-30T06:01:54.956Z,21.67
2022-11-30T06:04:22.465Z,24.38
2022-11-30T06:06:49.613Z,22.65
2022-11-30T06:09:16.575Z,20.17
2022-11-30T06:11:43.270Z,21.52
2022-11-30T06:14:09.803Z,23.00
2022-11-30T06:16:39.130Z,22.73
2022-11-30T06:19:05.873Z,21.17
2022-11-30T06:21:32.408Z,20.23
2022-11-30T06:23:59.010Z,20.80
2022-11-30T06:26:25.549Z,19.85
2022-11-30T06:28:52.224Z,21.65
2022-11-30T06:31:18.884Z,21.35
2022-11-30T06:33:45.578Z,21.17
2022-11-30T06:36:12.290Z,19.50
2022-11-30T06:38:38.893Z,20.77
2022-11-30T06:41:09.898Z,23.00
2022-11-30T06:43:38.015Z,21.98
2022-11-30T06:46:06.075Z,21.73
2022-11-30T06:48:33.676Z,21.67
2022-11-30T06:51:00.608Z,21.40
2022-11-30T06:53:27.987Z,20.88
2022-11-30T06:55:54.625Z,23.42
2022-11-30T06:58:21.276Z,21.15
2022-11-30T07:00:48.105Z,22.30
2022-11-30T07:03:14.941Z,22.60
2022-11-30T07:05:44.641Z,22.10
2022-11-30T07:10:45.475Z,19.90
2022-11-30T07:13:13.940Z,21.75
2022-11-30T07:15:42.001Z,21.98
2022-11-30T07:18:09.802Z,21.10
2022-11-30T07:20:39.786Z,20.75
2022-11-30T07:23:25.041Z,21.45
2022-11-30T07:26:08.153Z,22.17
2022-11-30T07:28:40.385Z,18.67
2022-11-30T07:31:36.146Z,22.42
2022-11-30T07:34:06.875Z,19.83
2022-11-30T07:36:34.622Z,19.60
2022-11-30T07:39:01.419Z,19.88
2022-11-30T07:41:28.049Z,19.48
2022-11-30T07:43:54.723Z,20.83
2022-11-30T07:46:21.487Z,21.05
2022-11-30T07:48:48.224Z,21.05
2022-11-30T07:51:17.925Z,20.00
2022-11-30T07:53:44.872Z,20.90
2022-11-30T07:56:19.615Z,20.05
2022-11-30T07:58:49.862Z,20.38
2022-11-30T08:01:22.365Z,19.95
2022-11-30T08:03:50.262Z,19.52
2022-11-30T08:06:22.234Z,20.92
2022-11-30T08:08:51.780Z,20.95
2022-11-30T08:11:21.852Z,20.17
2022-11-30T08:13:48.899Z,19.10
2022-11-30T08:16:18.274Z,21.80
2022-11-30T08:18:45.353Z,21.52
2022-11-30T08:21:14.390Z,20.60
2022-11-30T08:23:46.839Z,20.38
2022-11-30T08:26:19.441Z,20.52
2022-11-30T08:28:48.527Z,20.58
2022-11-30T08:31:21.310Z,19.63
2022-11-30T08:33:48.670Z,20.20
2022-11-30T08:36:21.313Z,19.23
2022-11-30T08:38:49.155Z,20.17
2022-11-30T08:41:19.315Z,19.75
2022-11-30T08:43:46.379Z,19.02
2022-11-30T08:46:48.958Z,20.00
2022-11-30T08:54:39.149Z,21.08
2022-11-30T08:57:05.912Z,20.67
2022-11-30T08:59:32.666Z,18.85
2022-11-30T09:02:01.086Z,19.73
2022-11-30T09:04:27.798Z,18.80
2022-11-30T09:06:58.906Z,19.98
2022-11-30T09:09:25.810Z,21.67
2022-11-30T09:11:52.480Z,24.45
2022-11-30T09:14:19.124Z,20.08
2022-11-30T09:16:45.685Z,17.95
2022-11-30T09:19:12.424Z,19.25
2022-11-30T09:21:39.149Z,19.48
2022-11-30T09:24:06.257Z,17.98
2022-11-30T09:26:32.867Z,17.02
2022-11-30T09:29:03.263Z,16.52
2022-11-30T09:31:30.080Z,17.65
2022-11-30T09:33:58.116Z,15.07
2022-11-30T09:36:29.957Z,16.08
2022-11-30T09:38:57.126Z,19.13
2022-11-30T09:41:39.024Z,16.45
2022-11-30T09:44:17.694Z,17.75
2022-11-30T09:46:55.086Z,17.30
2022-11-30T09:49:30.240Z,17.83
2022-11-30T09:52:01.130Z,17.42
2022-11-30T09:54:40.941Z,17.15
2022-11-30T09:59:58.922Z,16.48
2022-11-30T10:02:31.144Z,17.45
2022-11-30T10:04:58.394Z,17.58
2022-11-30T10:07:46.626Z,18.40
2022-11-30T10:10:34.769Z,16.55
2022-11-30T10:13:13.576Z,16.58
2022-11-30T10:15:43.282Z,15.88
2022-11-30T10:18:27.567Z,15.75
2022-11-30T10:21:30.602Z,17.35
2022-11-30T10:24:24.663Z,16.55
2022-11-30T10:27:02.568Z,17.98
2022-11-30T10:29:37.029Z,16.35
2022-11-30T10:32:27.255Z,15.20
2022-11-30T10:35:16.061Z,16.17
2022-11-30T10:37:44.468Z,15.10
2022-11-30T10:40:19.916Z,14.57
2022-11-30T10:43:09.626Z,13.40
2022-11-30T10:48:15.349Z,15.00
2022-11-30T10:50:42.198Z,13.15
2022-11-30T10:53:11.817Z,14.35
2022-11-30T10:55:45.444Z,13.57
2022-11-30T10:58:38.474Z,13.45
2022-11-30T11:01:08.488Z,13.93
2022-11-30T11:03:35.875Z,11.85
2022-11-30T11:06:23.771Z,11.25
2022-11-30T11:08:51.481Z,11.02
2022-11-30T11:11:38.299Z,11.27
2022-11-30T11:14:10.019Z,11.40
2022-11-30T11:17:07.012Z,11.07
2022-11-30T11:19:36.945Z,11.57
2022-11-30T11:22:19.444Z,10.48
2022-11-30T11:24:47.275Z,11.35
2022-11-30T11:27:26.191Z,10.63
2022-11-30T11:30:28.876Z,9.35
2022-11-30T11:33:10.753Z,9.90
2022-11-30T11:35:46.243Z,8.95
2022-11-30T11:38:39.066Z,9.68
2022-11-30T11:41:13.226Z,8.98
2022-11-30T11:44:04.957Z,10.65
2022-11-30T11:46:34.799Z,9.50
2022-11-30T11:49:04.705Z,9.95
2022-11-30T11:51:38.328Z,8.88
2022-11-30T11:54:24.436Z,9.07
2022-11-30T11:56:52.941Z,10.57
2022-11-30T11:59:32.805Z,10.13
2022-11-30T12:02:14.355Z,10.65
2022-11-30T12:04:54.266Z,10.27
2022-11-30T12:10:50.125Z,8.82
2022-11-30T12:13:18.663Z,9.60
2022-11-30T12:15:57.924Z,9.32
2022-11-30T12:18:34.093Z,9.95
2022-11-30T12:21:07.677Z,9.10
2022-11-30T12:24:00.550Z,8.52
2022-11-30T12:26:31.367Z,9.48
2022-11-30T12:29:18.377Z,9.57
2022-11-30T12:32:20.567Z,7.88
2022-11-30T12:35:19.645Z,9.00
2022-11-30T12:37:52.797Z,8.02
2022-11-30T12:40:33.601Z,7.13
2022-11-30T12:43:15.599Z,8.15
2022-11-30T12:45:47.745Z,8.00
2022-11-30T12:48:38.743Z,7.80
2022-11-30T12:51:30.036Z,7.45
2022-11-30T12:54:13.059Z,7.18
2022-11-30T12:57:05.481Z,6.88
2022-11-30T12:59:55.583Z,7.43
2022-11-30T13:02:46.919Z,8.10
2022-11-30T13:05:42.997Z,8.07
2022-11-30T13:08:27.674Z,6.57
2022-11-30T13:11:01.757Z,5.90
2022-11-30T13:13:35.429Z,7.70
2022-11-30T13:16:05.804Z,7.18
2022-11-30T13:18:34.757Z,7.20
2022-11-30T13:21:30.830Z,7.50
2022-11-30T13:24:23.052Z,8.13
2022-11-30T13:27:00.780Z,8.05
2022-11-30T13:29:39.552Z,8.00
2022-11-30T13:32:33.973Z,7.50
2022-11-30T13:35:30.420Z,8.07
2022-11-30T13:38:36.877Z,7.47
2022-11-30T13:41:07.396Z,8.18
2022-11-30T13:46:23.826Z,8.00
2022-11-30T13:49:11.553Z,7.32
2022-11-30T13:51:40.393Z,7.20
2022-11-30T13:54:44.465Z,8.02
2022-11-30T13:57:25.850Z,8.40
2022-11-30T13:59:58.132Z,7.20
2022-11-30T14:02:54.123Z,6.88
2022-11-30T14:05:36.493Z,8.38
2022-11-30T14:08:03.145Z,7.53
2022-11-30T14:10:30.932Z,7.22
2022-11-30T14:13:10.589Z,7.15
2022-11-30T14:15:37.251Z,7.15
2022-11-30T14:18:10.730Z,6.13
2022-11-30T14:20:51.350Z,7.10
2022-11-30T14:23:26.727Z,8.02
2022-11-30T14:25:57.017Z,7.07
2022-11-30T14:28:38.392Z,7.65
2022-11-30T14:31:09.978Z,8.35
2022-11-30T14:33:47.873Z,8.70
2022-11-30T14:36:15.124Z,15.63
2022-11-30T14:38:42.818Z,9.18
2022-11-30T14:41:28.008Z,10.10
2022-11-30T14:44:00.064Z,8.27
2022-11-30T14:46:27.746Z,8.82
2022-11-30T14:49:12.910Z,9.35
2022-11-30T14:51:40.352Z,9.15
2022-11-30T14:54:19.401Z,8.68
2022-11-30T14:56:50.435Z,8.23
2022-11-30T14:59:35.323Z,9.70
2022-11-30T15:02:06.130Z,8.68
2022-11-30T15:04:36.017Z,8.25
2022-11-30T15:09:32.332Z,7.68
2022-11-30T15:14:25.707Z,7.90
2022-11-30T15:16:57.380Z,8.25
2022-11-30T15:19:30.567Z,7.65
2022-11-30T15:21:58.775Z,7.65
2022-11-30T15:24:27.053Z,7.85
2022-11-30T15:26:56.808Z,10.02
2022-11-30T15:29:33.788Z,9.82
2022-11-30T15:32:05.130Z,10.10
2022-11-30T15:34:47.089Z,9.57
2022-11-30T15:37:14.180Z,9.60
2022-11-30T15:39:47.940Z,9.35
2022-11-30T15:42:28.739Z,9.18
2022-11-30T15:45:26.841Z,11.15
2022-11-30T15:47:55.587Z,8.55
2022-11-30T15:50:31.282Z,10.23
2022-11-30T15:53:22.388Z,10.38
2022-11-30T15:55:50.992Z,9.35
2022-11-30T15:58:37.192Z,12.00
2022-11-30T16:01:11.295Z,9.73
2022-11-30T16:03:56.930Z,12.05
2022-11-30T16:06:47.736Z,12.55
2022-11-30T16:09:33.375Z,9.60
2022-11-30T16:12:01.770Z,9.48
2022-11-30T16:14:28.686Z,10.25
2022-11-30T16:16:55.885Z,8.93
2022-11-30T16:19:22.781Z,8.23
2022-11-30T16:21:50.383Z,6.88
2022-11-30T16:24:17.769Z,8.35
2022-11-30T16:26:52.286Z,7.65
2022-11-30T16:29:22.736Z,8.18
2022-11-30T16:31:49.582Z,8.18
2022-11-30T16:34:16.240Z,7.93
2022-11-30T16:36:42.940Z,7.93
2022-11-30T16:39:12.421Z,6.60
2022-11-30T16:41:39.101Z,6.95
2022-11-30T16:44:12.287Z,7.47
2022-11-30T16:46:38.821Z,7.55
2022-11-30T16:49:05.463Z,7.60
2022-11-30T16:51:34.783Z,7.28
2022-11-30T16:54:01.632Z,7.43
2022-11-30T16:56:28.339Z,7.55
2022-11-30T16:58:55.089Z,7.60
2022-11-30T17:01:34.874Z,7.25
2022-11-30T17:04:13.221Z,6.78
2022-11-30T17:06:39.887Z,6.60
2022-11-30T17:09:09.927Z,7.28
2022-11-30T17:11:37.966Z,6.95
2022-11-30T17:14:05.322Z,8.25
2022-11-30T17:16:32.715Z,7.95
2022-11-30T17:18:59.321Z,8.88
2022-11-30T17:21:32.739Z,8.30
2022-11-30T17:23:59.636Z,8.93
2022-11-30T17:26:26.527Z,8.73
2022-11-30T17:28:53.596Z,8.52
2022-11-30T17:31:21.109Z,9.20
2022-11-30T17:33:48.717Z,9.23
2022-11-30T17:36:17.315Z,8.25
2022-11-30T17:38:44.231Z,10.07
2022-11-30T17:41:18.955Z,9.23
2022-11-30T17:43:47.153Z,9.25
2022-11-30T17:46:17.044Z,9.43
2022-11-30T17:48:44.092Z,8.77
2022-11-30T17:51:11.840Z,9.73
2022-11-30T17:53:39.740Z,11.50
2022-11-30T17:56:11.049Z,10.65
2022-11-30T17:58:43.408Z,11.50
2022-11-30T18:01:25.530Z,10.35
2022-11-30T18:03:53.244Z,12.23
2022-11-30T18:06:20.357Z,9.73
2022-11-30T18:08:47.287Z,10.70
2022-11-30T18:11:16.861Z,13.45
2022-11-30T18:13:44.069Z,11.45
2022-11-30T18:16:14.354Z,10.48
2022-11-30T18:18:47.118Z,11.77
2022-11-30T18:21:16.728Z,12.23
2022-11-30T18:23:43.734Z,12.23
2022-11-30T18:26:15.904Z,10.57
2022-11-30T18:28:43.555Z,10.73
2022-11-30T18:31:11.410Z,9.98
2022-11-30T18:33:38.922Z,8.77
2022-11-30T18:36:07.733Z,10.02
2022-11-30T18:38:38.495Z,10.32
2022-11-30T18:41:06.654Z,8.73
2022-11-30T18:43:34.308Z,9.98
2022-11-30T18:46:06.223Z,8.95
2022-11-30T18:48:33.012Z,7.90
2022-11-30T18:51:00.015Z,9.18
2022-11-30T18:53:26.731Z,8.88
2022-11-30T18:55:53.387Z,8.10
2022-11-30T18:58:20.008Z,7.85
2022-11-30T19:00:46.655Z,7.65
2022-11-30T19:03:13.282Z,7.75
2022-11-30T19:05:40.945Z,6.75
2022-11-30T19:08:14.292Z,7.35
2022-11-30T19:10:41.122Z,7.70
2022-11-30T19:13:07.944Z,7.60
2022-11-30T19:15:39.965Z,7.53
2022-11-30T19:18:07.873Z,7.25
2022-11-30T19:20:41.799Z,6.85
2022-11-30T19:23:08.743Z,6.97
2022-11-30T19:25:36.056Z,7.07
2022-11-30T19:28:02.785Z,7.45
2022-11-30T19:30:29.624Z,7.07
2022-11-30T19:32:56.207Z,9.40
2022-11-30T19:35:25.011Z,6.68
2022-11-30T19:37:52.442Z,6.88
2022-11-30T19:40:19.195Z,7.40
2022-11-30T19:42:45.851Z,7.20
2022-11-30T19:45:12.611Z,9.60
2022-11-30T19:47:39.248Z,8.45
2022-11-30T19:50:06.333Z,6.60
2022-11-30T19:52:32.979Z,7.38
2022-11-30T19:54:59.639Z,7.47
2022-11-30T19:57:26.451Z,6.50
2022-11-30T19:59:53.102Z,6.15
2022-11-30T20:02:20.149Z,6.20
2022-11-30T20:04:48.452Z,7.05
2022-11-30T20:07:16.080Z,6.88
2022-11-30T20:09:42.812Z,7.45
2022-11-30T20:12:09.403Z,6.85
2022-11-30T20:14:36.882Z,6.90
2022-11-30T20:17:03.846Z,7.40
2022-11-30T20:19:31.797Z,6.65
2022-11-30T20:21:59.416Z,6.95
2022-11-30T20:24:26.717Z,6.93
2022-11-30T20:26:53.432Z,7.38
2022-11-30T20:29:20.072Z,7.88
2022-11-30T20:31:48.547Z,7.13
2022-11-30T20:34:16.672Z,7.28
2022-11-30T20:36:43.999Z,7.07
2022-11-30T20:39:11.551Z,7.15
2022-11-30T20:41:38.333Z,7.43
2022-11-30T20:44:05.256Z,9.50
2022-11-30T20:46:35.133Z,7.75
2022-11-30T20:49:04.430Z,7.75
2022-11-30T20:51:34.830Z,9.02
2022-11-30T20:54:05.773Z,7.45
2022-11-30T20:56:35.296Z,7.72
2022-11-30T20:59:03.903Z,6.78
2022-11-30T21:01:30.804Z,8.98
2022-11-30T21:03:59.615Z,8.95
2022-11-30T21:06:27.317Z,7.90
2022-11-30T21:08:54.113Z,7.90
2022-11-30T21:11:21.416Z,8.48
2022-11-30T21:13:49.821Z,9.27
2022-11-30T21:16:24.089Z,10.10
2022-11-30T21:18:53.825Z,8.57
2022-11-30T21:21:22.977Z,8.93
2022-11-30T21:23:50.913Z,10.05
2022-11-30T21:26:20.435Z,8.18
2022-11-30T21:28:47.905Z,7.20
2022-11-30T21:31:15.883Z,9.27
2022-11-30T21:33:45.867Z,9.07
2022-11-30T21:36:19.248Z,7.70
2022-11-30T21:38:46.065Z,7.75
2022-11-30T21:41:14.382Z,7.30
2022-11-30T21:43:41.719Z,8.48
2022-11-30T21:46:12.310Z,8.35
2022-11-30T21:48:41.164Z,7.72
2022-11-30T21:51:13.119Z,7.83
2022-11-30T21:53:48.643Z,7.70
2022-11-30T21:56:19.549Z,7.93
2022-11-30T21:58:48.251Z,8.32
2022-11-30T22:01:28.096Z,8.00
2022-11-30T22:03:56.336Z,9.27
2022-11-30T22:06:24.214Z,8.00
2022-11-30T22:08:51.334Z,7.85
2022-11-30T22:11:22.509Z,7.93
2022-11-30T22:13:51.078Z,7.57
2022-11-30T22:16:19.079Z,8.27
2022-11-30T22:18:46.284Z,8.38
2022-11-30T22:21:18.383Z,8.07
2022-11-30T22:23:53.640Z,6.50
2022-11-30T22:26:25.891Z,7.90
2022-11-30T22:28:55.341Z,8.65
2022-11-30T22:31:24.824Z,6.75
2022-11-30T22:33:51.532Z,8.55
2022-11-30T22:36:21.444Z,6.50
2022-11-30T22:38:53.279Z,7.18
2022-11-30T22:41:19.952Z,7.25
2022-11-30T22:43:47.265Z,7.45
2022-11-30T22:46:16.434Z,8.05
2022-11-30T22:48:44.064Z,7.70
2022-11-30T22:51:19.656Z,7.90
2022-11-30T22:53:49.721Z,7.03
2022-11-30T22:56:19.363Z,9.07
2022-11-30T23:01:19.407Z,8.23
2022-11-30T23:03:47.491Z,9.88
2022-11-30T23:06:16.595Z,10.13
2022-11-30T23:08:44.587Z,8.88
2022-11-30T23:11:14.967Z,10.45
2022-11-30T23:13:43.078Z,9.68
2022-11-30T23:16:11.138Z,10.40
2022-11-30T23:18:43.647Z,12.30
2022-11-30T23:21:16.268Z,10.20
2022-11-30T23:23:44.102Z,11.15
2022-11-30T23:26:15.826Z,11.93
2022-11-30T23:28:43.710Z,11.45
2022-11-30T23:31:33.788Z,10.57
2022-11-30T23:33:59.928Z,11.35
2022-11-30T23:36:26.669Z,11.68
2022-11-30T23:38:59.083Z,10.75
2022-11-30T23:41:26.510Z,11.35
2022-11-30T23:43:53.480Z,11.48
2022-11-30T23:46:20.521Z,10.80
2022-11-30T23:48:47.544Z,11.60
2022-11-30T23:51:14.203Z,10.85
2022-11-30T23:53:40.862Z,11.98
2022-11-30T23:56:11.162Z,11.00
2022-11-30T23:58:39.549Z,12.20
